Time;durP1;ratioP1;P1;durP2;ratioP2;P2;SDS_P1;SDS_P2;PMS_P1;PMS_P2;Temp;Humidity;BMP_temperature;BMP_pressure;BME280_temperature;BME280_humidity;BME280_pressure;Samples;Min_cycle;Max_cycle;Signal;HPM_P1;HPM_P2
2023/10/01 00:00:10;;;;;;;15.23;11.40;;;;;;;;;;2610877;54;20404;-77
2023/10/01 00:05:42;;;;;;;17.93;12.30;;;;;;;;;;2618059;54;20494;-77
2023/10/01 00:11:12;;;;;;;18.70;13.27;;;;;;;;;;2612158;54;20386;-77
2023/10/01 00:16:42;;;;;;;26.03;20.50;;;;;;;;;;2612196;54;20499;-78
2023/10/01 00:22:12;;;;;;;16.90;14.87;;;;;;;;;;2612157;54;20401;-79
2023/10/01 00:27:41;;;;;;;17.90;16.00;;;;;;;;;;2614475;54;20395;-79
2023/10/01 00:33:13;;;;;;;17.03;15.30;;;;;;;;;;2611828;54;20375;-79
2023/10/01 00:38:43;;;;;;;17.13;15.13;;;;;;;;;;2612462;54;20478;-79
2023/10/01 00:44:13;;;;;;;15.30;13.47;;;;;;;;;;2611168;54;20378;-79
2023/10/01 00:49:47;;;;;;;14.17;12.87;;;;;;;;;;2613587;54;20391;-78
2023/10/01 00:55:18;;;;;;;17.23;13.33;;;;;;;;;;2612347;54;20509;-79
2023/10/01 01:00:52;;;;;;;14.83;13.23;;;;;;;;;;2612610;54;20394;-79
2023/10/01 01:03:38;;;;;;;17.93;15.20;;;;;;;;;;2611336;54;20487;-78
2023/10/01 01:06:13;;;;;;;17.00;13.27;;;;;;;;;;2612333;54;20450;-79
2023/10/01 01:11:46;;;;;;;17.53;12.60;;;;;;;;;;2609306;39;20887;-79
2023/10/01 01:17:16;;;;;;;18.07;12.83;;;;;;;;;;2609448;54;20424;-77
2023/10/01 01:22:54;;;;;;;12.40;11.10;;;;;;;;;;2610528;39;20985;-77
2023/10/01 01:28:27;;;;;;;16.90;12.77;;;;;;;;;;2609286;54;20378;-78
2023/10/01 01:33:56;;;;;;;14.60;11.40;;;;;;;;;;2610905;54;21055;-78
2023/10/01 01:39:41;;;;;;;13.27;11.13;;;;;;;;;;2611847;54;20387;-78
2023/10/01 01:45:19;;;;;;;12.80;11.40;;;;;;;;;;2610075;39;20887;-78
2023/10/01 01:50:49;;;;;;;14.13;11.20;;;;;;;;;;2609538;54;20386;-78
2023/10/01 01:56:18;;;;;;;15.37;11.00;;;;;;;;;;2609785;54;20391;-78
2023/10/01 02:01:49;;;;;;;16.93;10.63;;;;;;;;;;2609976;54;20394;-78
2023/10/01 02:10:27;;;;;;;16.20;11.40;;;;;;;;;;2610638;31;20985;-78
2023/10/01 02:16:18;;;;;;;14.60;10.33;;;;;;;;;;2613904;54;20854;-78
2023/10/01 02:21:52;;;;;;;12.60;9.40;;;;;;;;;;2616370;39;20761;-78
2023/10/01 02:27:29;;;;;;;18.90;12.40;;;;;;;;;;2615847;54;20426;-78
2023/10/01 02:38:46;;;;;;;14.03;10.57;;;;;;;;;;2612235;54;20388;-79
2023/10/01 02:44:19;;;;;;;10.37;9.37;;;;;;;;;;2611929;54;20403;-79
2023/10/01 02:49:51;;;;;;;14.23;9.60;;;;;;;;;;2612492;54;20397;-79
2023/10/01 02:55:26;;;;;;;11.60;9.30;;;;;;;;;;2612387;54;20499;-78
2023/10/01 03:00:55;;;;;;;13.13;8.70;;;;;;;;;;2612179;54;20387;-79
2023/10/01 03:12:36;;;;;;;12.17;9.17;;;;;;;;;;2614084;54;20354;-78
2023/10/01 03:18:08;;;;;;;13.07;8.77;;;;;;;;;;2611506;54;20426;-78
2023/10/01 03:23:39;;;;;;;15.20;8.70;;;;;;;;;;2611431;54;20399;-78
2023/10/01 03:29:17;;;;;;;10.80;8.13;;;;;;;;;;2611096;54;21520;-79
2023/10/01 03:34:46;;;;;;;11.47;7.63;;;;;;;;;;2609252;54;20370;-79
2023/10/01 03:40:21;;;;;;;11.00;9.10;;;;;;;;;;2609621;54;20402;-79
2023/10/01 03:45:55;;;;;;;11.73;8.67;;;;;;;;;;2610659;54;21083;-79
2023/10/01 03:57:17;;;;;;;9.57;8.67;;;;;;;;;;2610053;54;20407;-79
2023/10/01 04:02:46;;;;;;;11.93;10.77;;;;;;;;;;2610655;54;20373;-79
2023/10/01 04:08:16;;;;;;;11.77;9.00;;;;;;;;;;2612776;39;20872;-79
2023/10/01 04:14:07;;;;;;;10.00;8.97;;;;;;;;;;2611495;54;20402;-79
2023/10/01 04:19:36;;;;;;;9.10;8.30;;;;;;;;;;2612251;54;20374;-78
2023/10/01 04:25:10;;;;;;;9.70;8.60;;;;;;;;;;2611766;39;20844;-78
2023/10/01 04:30:44;;;;;;;10.53;9.53;;;;;;;;;;2611290;54;20941;-77
2023/10/01 04:36:19;;;;;;;10.03;8.30;;;;;;;;;;2611973;54;20982;-77
2023/10/01 04:41:58;;;;;;;11.63;9.07;;;;;;;;;;2611828;54;20395;-77
2023/10/01 04:47:31;;;;;;;9.73;8.53;;;;;;;;;;2612619;54;20379;-78
2023/10/01 04:53:01;;;;;;;9.30;8.40;;;;;;;;;;2610957;54;20391;-77
2023/10/01 04:58:32;;;;;;;9.60;8.53;;;;;;;;;;2612482;54;20382;-77
2023/10/01 05:04:02;;;;;;;10.37;8.20;;;;;;;;;;2611290;54;20374;-78
2023/10/01 05:13:03;;;;;;;9.37;8.10;;;;;;;;;;2613448;54;20407;-77
2023/10/01 05:18:33;;;;;;;9.20;8.40;;;;;;;;;;2612161;54;20411;-77
2023/10/01 05:24:03;;;;;;;9.10;8.27;;;;;;;;;;2612111;39;20998;-76
2023/10/01 05:29:34;;;;;;;9.17;8.37;;;;;;;;;;2611846;54;21375;-77
2023/10/01 05:35:14;;;;;;;9.27;8.00;;;;;;;;;;2611248;54;20418;-79
2023/10/01 05:40:44;;;;;;;8.87;8.07;;;;;;;;;;2611958;54;20505;-76
2023/10/01 05:46:14;;;;;;;10.70;8.90;;;;;;;;;;2611620;54;20378;-77
2023/10/01 05:51:45;;;;;;;12.13;8.67;;;;;;;;;;2612143;54;20574;-78
2023/10/01 05:57:14;;;;;;;11.40;9.40;;;;;;;;;;2609235;54;20407;-77
2023/10/01 06:02:48;;;;;;;11.07;9.03;;;;;;;;;;2610865;54;20394;-77
2023/10/01 06:08:24;;;;;;;11.67;10.23;;;;;;;;;;2614555;39;21008;-76
2023/10/01 06:13:56;;;;;;;11.03;9.07;;;;;;;;;;2614422;54;20483;-77
2023/10/01 06:19:26;;;;;;;16.40;9.03;;;;;;;;;;2615079;54;20391;-77
2023/10/01 06:24:56;;;;;;;10.57;9.63;;;;;;;;;;2614913;54;20383;-76
2023/10/01 06:30:26;;;;;;;10.83;9.83;;;;;;;;;;2612859;54;20415;-78
2023/10/01 06:41:45;;;;;;;15.37;8.50;;;;;;;;;;2614619;54;20385;-76
2023/10/01 06:47:15;;;;;;;10.13;9.03;;;;;;;;;;2612964;54;20423;-77
2023/10/01 06:52:45;;;;;;;10.77;9.70;;;;;;;;;;2612168;54;20495;-78
2023/10/01 06:58:15;;;;;;;11.50;10.50;;;;;;;;;;2614887;54;20395;-79
2023/10/01 07:03:44;;;;;;;12.63;11.23;;;;;;;;;;2615012;54;20395;-78
2023/10/01 07:15:21;;;;;;;13.10;11.80;;;;;;;;;;2615691;54;20475;-78
2023/10/01 07:20:54;;;;;;;13.73;12.33;;;;;;;;;;2611119;54;20439;-77
2023/10/01 07:26:23;;;;;;;13.23;11.83;;;;;;;;;;2613214;54;20440;-79
2023/10/01 07:31:55;;;;;;;13.60;12.43;;;;;;;;;;2613158;54;20415;-78
2023/10/01 07:37:25;;;;;;;13.50;12.30;;;;;;;;;;2612147;54;20411;-77
2023/10/01 07:42:57;;;;;;;14.10;12.70;;;;;;;;;;2612691;39;20814;-78
2023/10/01 07:48:27;;;;;;;15.00;13.60;;;;;;;;;;2615319;47;20407;-76
2023/10/01 07:53:57;;;;;;;15.93;14.33;;;;;;;;;;2615699;54;20977;-76
2023/10/01 07:59:33;;;;;;;15.57;14.07;;;;;;;;;;2613404;54;20431;-77
2023/10/01 08:05:08;;;;;;;16.43;13.70;;;;;;;;;;2614767;54;20414;-80
2023/10/01 08:14:07;;;;;;;15.53;14.23;;;;;;;;;;2615416;54;20861;-78
2023/10/01 08:19:54;;;;;;;14.90;13.60;;;;;;;;;;2616976;54;20359;-78
2023/10/01 08:25:42;;;;;;;15.30;13.90;;;;;;;;;;2613569;54;20394;-82
2023/10/01 08:37:06;;;;;;;14.27;12.97;;;;;;;;;;2615849;54;21546;-78
2023/10/01 08:46:10;;;;;;;15.40;14.00;;;;;;;;;;2618889;54;20386;-80
2023/10/01 08:51:39;;;;;;;14.43;13.23;;;;;;;;;;2618124;39;20990;-77
2023/10/01 08:57:15;;;;;;;15.20;13.90;;;;;;;;;;2619577;54;20992;-78
2023/10/01 09:02:55;;;;;;;14.90;13.63;;;;;;;;;;2611911;54;20425;-77
2023/10/01 09:17:25;;;;;;;15.43;14.17;;;;;;;;;;2619603;54;20430;-77
2023/10/01 09:22:59;;;;;;;15.70;14.13;;;;;;;;;;2621260;54;20387;-78
2023/10/01 09:28:37;;;;;;;15.30;13.97;;;;;;;;;;2619343;54;20382;-78
2023/10/01 09:40:12;;;;;;;14.43;13.23;;;;;;;;;;2623561;54;20399;-77
2023/10/01 09:45:42;;;;;;;15.57;14.13;;;;;;;;;;2616294;54;21282;-78
2023/10/01 09:51:16;;;;;;;14.87;13.53;;;;;;;;;;2615322;54;20649;-80
2023/10/01 09:56:49;;;;;;;15.60;14.20;;;;;;;;;;2614241;54;20386;-80
2023/10/01 10:02:27;;;;;;;15.77;14.47;;;;;;;;;;2614268;54;20494;-78
2023/10/01 10:29:12;;;;;;;15.00;13.80;;;;;;;;;;2615805;39;21221;-78
2023/10/01 10:35:03;;;;;;;15.70;13.87;;;;;;;;;;2615297;54;20478;-79
2023/10/01 10:52:58;;;;;;;14.97;13.73;;;;;;;;;;2614227;54;20399;-79
2023/10/01 10:58:31;;;;;;;16.33;14.67;;;;;;;;;;2613304;54;20398;-79
2023/10/01 11:04:01;;;;;;;15.87;14.57;;;;;;;;;;2614167;54;20428;-79
2023/10/01 11:09:31;;;;;;;16.80;15.30;;;;;;;;;;2614601;39;20780;-79
2023/10/01 11:15:19;;;;;;;14.50;13.40;;;;;;;;;;2613949;54;20469;-77
2023/10/01 11:21:01;;;;;;;15.37;14.07;;;;;;;;;;2615308;47;20375;-80
2023/10/01 11:26:30;;;;;;;15.63;14.10;;;;;;;;;;2614264;54;21476;-78
2023/10/01 11:31:59;;;;;;;15.90;14.70;;;;;;;;;;2613907;54;20403;-77
2023/10/01 11:37:28;;;;;;;15.63;14.07;;;;;;;;;;2614353;54;20392;-78
2023/10/01 11:43:05;;;;;;;18.10;16.27;;;;;;;;;;2614246;39;21047;-77
2023/10/01 11:48:56;;;;;;;15.80;14.50;;;;;;;;;;2613085;54;21121;-78
2023/10/01 11:57:52;;;;;;;15.80;14.30;;;;;;;;;;2614218;54;20400;-78
2023/10/01 12:03:22;;;;;;;16.70;15.20;;;;;;;;;;2614348;54;20419;-77
2023/10/01 12:08:53;;;;;;;16.60;14.93;;;;;;;;;;2614915;54;20502;-77
2023/10/01 12:23:49;;;;;;;16.50;15.03;;;;;;;;;;2614584;54;20382;-77
2023/10/01 12:29:18;;;;;;;16.03;14.63;;;;;;;;;;2614740;54;20379;-76
2023/10/01 12:34:47;;;;;;;17.43;15.70;;;;;;;;;;2614887;39;20799;-78
2023/10/01 12:40:16;;;;;;;16.47;15.03;;;;;;;;;;2614253;54;20428;-77
2023/10/01 12:45:45;;;;;;;16.27;14.87;;;;;;;;;;2614492;54;20379;-76
2023/10/01 12:51:14;;;;;;;16.90;15.60;;;;;;;;;;2614581;54;20390;-78
2023/10/01 12:56:44;;;;;;;17.50;15.80;;;;;;;;;;2616423;39;20800;-76
2023/10/01 13:08:05;;;;;;;17.33;15.73;;;;;;;;;;2616112;54;20411;-77
2023/10/01 13:13:35;;;;;;;20.53;18.63;;;;;;;;;;2615497;54;20387;-77
2023/10/01 13:19:17;;;;;;;20.17;18.30;;;;;;;;;;2615388;54;20410;-76
2023/10/01 13:36:35;;;;;;;17.60;16.23;;;;;;;;;;2614664;39;20840;-77
2023/10/01 14:18:08;;;;;;;17.87;16.07;;;;;;;;;;2616416;54;20406;-77
2023/10/01 14:23:42;;;;;;;18.30;16.60;;;;;;;;;;2616754;39;20921;-78
2023/10/01 14:29:12;;;;;;;18.40;16.80;;;;;;;;;;2615192;54;20387;-77
2023/10/01 14:34:42;;;;;;;18.20;16.70;;;;;;;;;;2616255;54;20428;-75
2023/10/01 14:40:13;;;;;;;18.73;17.03;;;;;;;;;;2616163;39;20478;-77
2023/10/01 14:45:44;;;;;;;19.60;18.00;;;;;;;;;;2617124;54;20414;-76
2023/10/01 14:51:16;;;;;;;19.90;18.00;;;;;;;;;;2614821;54;20436;-77
2023/10/01 14:56:54;;;;;;;18.77;17.10;;;;;;;;;;2615554;54;20399;-78
2023/10/01 15:02:24;;;;;;;18.40;16.87;;;;;;;;;;2615530;54;20375;-78
2023/10/01 15:07:54;;;;;;;18.87;17.03;;;;;;;;;;2616414;54;20415;-78
2023/10/01 15:13:35;;;;;;;19.23;17.53;;;;;;;;;;2615933;54;20390;-78
2023/10/01 15:19:05;;;;;;;20.77;18.50;;;;;;;;;;2614934;54;20415;-78
2023/10/01 15:24:35;;;;;;;19.33;17.50;;;;;;;;;;2615367;54;20416;-78
2023/10/01 15:30:20;;;;;;;19.33;17.47;;;;;;;;;;2614352;39;20774;-78
2023/10/01 15:35:52;;;;;;;19.43;17.70;;;;;;;;;;2612892;54;20382;-77
2023/10/01 15:41:21;;;;;;;19.90;18.10;;;;;;;;;;2613484;54;21005;-79
2023/10/01 15:46:58;;;;;;;20.03;18.10;;;;;;;;;;2614365;54;20444;-78
2023/10/01 15:52:37;;;;;;;21.17;19.27;;;;;;;;;;2613199;54;20963;-79
2023/10/01 16:07:17;;;;;;;20.47;18.57;;;;;;;;;;2614126;54;20383;-77
2023/10/01 16:12:46;;;;;;;18.90;17.10;;;;;;;;;;2612581;54;20421;-78
2023/10/01 16:21:54;;;;;;;18.23;16.53;;;;;;;;;;2614965;54;20412;-79
2023/10/01 16:27:32;;;;;;;18.67;16.97;;;;;;;;;;2617598;54;20347;-78
2023/10/01 16:33:04;;;;;;;19.97;18.10;;;;;;;;;;2614775;54;20391;-78
2023/10/01 16:38:33;;;;;;;20.23;18.20;;;;;;;;;;2615245;39;20799;-79
2023/10/01 16:44:03;;;;;;;21.93;19.77;;;;;;;;;;2615802;39;20812;-81
2023/10/01 16:49:35;;;;;;;18.63;16.90;;;;;;;;;;2616525;39;20737;-80
2023/10/01 16:55:07;;;;;;;21.70;19.50;;;;;;;;;;2615667;39;20984;-79
2023/10/01 17:00:37;;;;;;;17.77;15.97;;;;;;;;;;2612635;54;20487;-80
2023/10/01 17:06:08;;;;;;;17.00;15.60;;;;;;;;;;2615429;54;20394;-79
2023/10/01 17:11:42;;;;;;;19.20;17.30;;;;;;;;;;2615325;54;20390;-79
2023/10/01 17:17:17;;;;;;;17.70;15.90;;;;;;;;;;2615148;54;21236;-79
2023/10/01 17:22:47;;;;;;;20.60;17.70;;;;;;;;;;2614900;39;20763;-79
2023/10/01 17:34:30;;;;;;;20.00;17.73;;;;;;;;;;2613871;39;20831;-80
2023/10/01 17:46:13;;;;;;;18.90;15.63;;;;;;;;;;2614482;54;20366;-81
2023/10/01 17:55:00;;;;;;;16.73;14.97;;;;;;;;;;2611906;54;20407;-80
2023/10/01 18:00:39;;;;;;;16.90;15.03;;;;;;;;;;2614472;54;20419;-81
2023/10/01 18:06:10;;;;;;;15.83;13.90;;;;;;;;;;2614968;54;20391;-79
2023/10/01 18:11:41;;;;;;;19.13;15.47;;;;;;;;;;2613506;39;20985;-81
2023/10/01 18:17:11;;;;;;;17.00;13.80;;;;;;;;;;2615005;54;20506;-81
2023/10/01 18:22:49;;;;;;;17.07;13.83;;;;;;;;;;2615477;54;20499;-80
2023/10/01 18:28:20;;;;;;;18.90;14.93;;;;;;;;;;2614514;54;20411;-80
2023/10/01 18:33:53;;;;;;;17.40;13.43;;;;;;;;;;2614499;54;20394;-79
2023/10/01 18:39:26;;;;;;;18.37;15.10;;;;;;;;;;2613939;54;20386;-79
2023/10/01 18:44:58;;;;;;;16.97;15.17;;;;;;;;;;2616109;54;20408;-78
2023/10/01 18:50:28;;;;;;;20.80;14.70;;;;;;;;;;2617309;54;20408;-79
2023/10/01 18:55:58;;;;;;;21.90;15.20;;;;;;;;;;2628421;54;20403;-78
2023/10/01 19:01:28;;;;;;;21.00;15.17;;;;;;;;;;2628389;54;20486;-79
2023/10/01 19:06:59;;;;;;;19.10;14.83;;;;;;;;;;2614535;54;20376;-80
2023/10/01 19:12:28;;;;;;;18.60;14.10;;;;;;;;;;2614182;54;20426;-78
2023/10/01 19:24:05;;;;;;;19.67;15.23;;;;;;;;;;2616521;54;20379;-78
2023/10/01 19:29:35;;;;;;;17.67;15.37;;;;;;;;;;2614018;54;20411;-77
2023/10/01 19:35:05;;;;;;;21.80;15.40;;;;;;;;;;2616817;54;20423;-79
2023/10/01 19:40:34;;;;;;;21.00;15.07;;;;;;;;;;2621868;54;20412;-79
2023/10/01 19:46:06;;;;;;;18.77;13.87;;;;;;;;;;2624244;54;20970;-79
2023/10/01 19:51:42;;;;;;;16.40;13.30;;;;;;;;;;2624325;54;20394;-78
2023/10/01 19:57:17;;;;;;;13.93;12.43;;;;;;;;;;2618968;54;20492;-79
2023/10/01 20:02:47;;;;;;;20.37;16.90;;;;;;;;;;2615915;54;20412;-78
2023/10/01 20:08:17;;;;;;;19.10;14.13;;;;;;;;;;2616198;54;20568;-78
2023/10/01 20:13:49;;;;;;;14.97;13.40;;;;;;;;;;2615610;54;20383;-78
2023/10/01 20:22:56;;;;;;;15.80;13.30;;;;;;;;;;2614844;54;20447;-78
2023/10/01 20:28:28;;;;;;;15.90;13.50;;;;;;;;;;2612704;39;21019;-77
2023/10/01 20:33:58;;;;;;;19.07;14.27;;;;;;;;;;2611278;54;20447;-78
2023/10/01 20:39:43;;;;;;;14.10;12.70;;;;;;;;;;2612268;54;20427;-78
2023/10/01 20:51:04;;;;;;;14.17;12.27;;;;;;;;;;2610742;54;20391;-78
2023/10/01 20:56:35;;;;;;;13.63;12.20;;;;;;;;;;2611823;54;20427;-78
2023/10/01 21:02:08;;;;;;;14.93;12.23;;;;;;;;;;2612048;54;20386;-79
2023/10/01 21:07:44;;;;;;;13.70;12.20;;;;;;;;;;2612156;54;20379;-79
2023/10/01 21:25:22;;;;;;;18.27;12.10;;;;;;;;;;2614664;54;20422;-79
2023/10/01 21:30:51;;;;;;;16.17;11.70;;;;;;;;;;2613758;54;20412;-78
2023/10/01 21:36:22;;;;;;;15.57;13.67;;;;;;;;;;2611649;54;20431;-79
2023/10/01 21:41:51;;;;;;;15.07;12.10;;;;;;;;;;2612128;54;20380;-79
2023/10/01 21:47:22;;;;;;;16.53;12.27;;;;;;;;;;2612177;54;20379;-79
2023/10/01 21:52:57;;;;;;;15.00;12.27;;;;;;;;;;2610750;54;20387;-79
2023/10/01 22:04:29;;;;;;;21.63;12.83;;;;;;;;;;2612060;54;20390;-79
2023/10/01 22:10:07;;;;;;;16.60;12.77;;;;;;;;;;2612049;54;20426;-77
2023/10/01 22:15:37;;;;;;;17.27;12.50;;;;;;;;;;2610760;39;21135;-78
2023/10/01 22:18:25;;;;;;;15.03;12.20;;;;;;;;;;2610696;54;20420;-78
2023/10/01 22:20:52;;;;;;;15.60;12.20;;;;;;;;;;2610444;47;20436;-78
2023/10/01 22:26:21;;;;;;;16.03;11.57;;;;;;;;;;2609916;54;20386;-78
2023/10/01 22:31:54;;;;;;;17.87;11.87;;;;;;;;;;2610555;54;20584;-78
2023/10/01 22:37:28;;;;;;;18.10;11.43;;;;;;;;;;2610471;54;20402;-78
2023/10/01 22:42:58;;;;;;;15.50;12.43;;;;;;;;;;2613666;54;20382;-78
2023/10/01 22:48:29;;;;;;;16.47;11.30;;;;;;;;;;2615276;54;20394;-78
2023/10/01 22:54:04;;;;;;;16.20;11.30;;;;;;;;;;2614094;54;20426;-78
2023/10/01 22:59:34;;;;;;;16.20;11.87;;;;;;;;;;2611933;54;20936;-78
2023/10/01 23:05:04;;;;;;;14.57;11.67;;;;;;;;;;2612033;54;20439;-78
2023/10/01 23:10:37;;;;;;;13.20;11.80;;;;;;;;;;2612174;54;20395;-79
2023/10/01 23:25:10;;;;;;;19.20;11.87;;;;;;;;;;2612130;53;20729;-78
2023/10/01 23:30:45;;;;;;;18.23;10.97;;;;;;;;;;2610645;54;22253;-78
2023/10/01 23:36:18;;;;;;;14.07;11.13;;;;;;;;;;2611661;54;20367;-78
2023/10/01 23:41:52;;;;;;;15.97;12.07;;;;;;;;;;2611448;39;20778;-78
2023/10/01 23:53:18;;;;;;;17.40;12.37;;;;;;;;;;2611920;54;20359;-78
2023/10/01 23:58:47;;;;;;;16.13;12.13;;;;;;;;;;2610642;54;20487;-79
